SAS2648 EDDH-ESSA
Flight info
| Callsign | SAS2648 |
|---|---|
| Flight time | 1h 17m |
| Altitude | 35000 |
| Route | LUGEG3C/05 LUGEG P605 MEGAR DCT BEDOS N851 PELUP Z226 NILUG |
| Aircraft | MD82/M-SDFGIRWY/S |
Departure
| Time | 2026-04-20 14:26 |
|---|---|
| Airport | Hamburg Helmut Schmidt Airport (EDDH) |
Arrival
| Time | 2026-04-20 15:43 |
|---|---|
| Airport | Stockholm-Arlanda Airport (ESSA) |
| Time | Latitude | Longitude | Altitude | Speed | Heading |
|---|---|---|---|---|---|
| 2026-04-20 13:53 | 53.63152 | 10.00097 | 49 ft | 0 kts | 140° |
| 2026-04-20 14:15 | 53.63166 | 10.00079 | 46 ft | 4 kts | 155° |
| 2026-04-20 14:15 | 53.63189 | 10.00072 | 44 ft | 4 kts | 194° |
| 2026-04-20 14:15 | 53.63206 | 10.00089 | 48 ft | 1 kts | 230° |
| 2026-04-20 14:19 | 53.63201 | 10.00079 | 47 ft | 2 kts | 230° |
| 2026-04-20 14:20 | 53.63185 | 10.00046 | 47 ft | 6 kts | 231° |
| 2026-04-20 14:20 | 53.63150 | 9.99974 | 49 ft | 9 kts | 231° |
| 2026-04-20 14:20 | 53.63122 | 9.99872 | 49 ft | 10 kts | 288° |
| 2026-04-20 14:20 | 53.63180 | 9.99798 | 49 ft | 10 kts | 332° |
| 2026-04-20 14:21 | 53.63224 | 9.99718 | 49 ft | 10 kts | 279° |
| 2026-04-20 14:21 | 53.63195 | 9.99616 | 48 ft | 11 kts | 231° |
| 2026-04-20 14:21 | 53.63142 | 9.99505 | 47 ft | 13 kts | 232° |
| 2026-04-20 14:21 | 53.63088 | 9.99373 | 47 ft | 14 kts | 234° |
| 2026-04-20 14:22 | 53.63029 | 9.99238 | 47 ft | 15 kts | 231° |
| 2026-04-20 14:22 | 53.62960 | 9.99098 | 47 ft | 16 kts | 230° |
| 2026-04-20 14:22 | 53.62888 | 9.98951 | 47 ft | 17 kts | 230° |
| 2026-04-20 14:22 | 53.62808 | 9.98790 | 47 ft | 18 kts | 230° |
| 2026-04-20 14:23 | 53.62726 | 9.98624 | 47 ft | 19 kts | 230° |
| 2026-04-20 14:23 | 53.62638 | 9.98446 | 47 ft | 20 kts | 230° |
| 2026-04-20 14:23 | 53.62545 | 9.98257 | 47 ft | 21 kts | 228° |
| 2026-04-20 14:23 | 53.62433 | 9.98087 | 47 ft | 22 kts | 223° |
| 2026-04-20 14:24 | 53.62330 | 9.97888 | 47 ft | 23 kts | 230° |
| 2026-04-20 14:24 | 53.62232 | 9.97689 | 47 ft | 18 kts | 230° |
| 2026-04-20 14:24 | 53.62179 | 9.97521 | 47 ft | 17 kts | 269° |
| 2026-04-20 14:24 | 53.62242 | 9.97360 | 41 ft | 14 kts | 325° |
| 2026-04-20 14:25 | 53.62319 | 9.97376 | 40 ft | 16 kts | 43° |
| 2026-04-20 14:25 | 53.62424 | 9.97583 | 41 ft | 41 kts | 50° |
| 2026-04-20 14:25 | 53.62748 | 9.98239 | 43 ft | 104 kts | 50° |
| 2026-04-20 14:25 | 53.63321 | 9.99394 | 225 ft | 140 kts | 50° |
| 2026-04-20 14:26 | 53.63931 | 10.00602 | 1051 ft | 138 kts | 49° |
| 2026-04-20 14:26 | 53.64547 | 10.01848 | 1826 ft | 137 kts | 50° |
| 2026-04-20 14:26 | 53.65147 | 10.03090 | 2611 ft | 137 kts | 52° |
| 2026-04-20 14:26 | 53.65723 | 10.04281 | 3176 ft | 149 kts | 53° |
| 2026-04-20 14:27 | 53.66430 | 10.05777 | 3594 ft | 174 kts | 54° |
| 2026-04-20 14:27 | 53.67200 | 10.07432 | 4247 ft | 185 kts | 53° |
| 2026-04-20 14:27 | 53.68022 | 10.09228 | 4707 ft | 204 kts | 53° |
| 2026-04-20 14:27 | 53.68884 | 10.11104 | 5655 ft | 196 kts | 53° |
| 2026-04-20 14:28 | 53.69755 | 10.12969 | 6264 ft | 210 kts | 53° |
| 2026-04-20 14:28 | 53.70626 | 10.14809 | 7334 ft | 194 kts | 53° |
| 2026-04-20 14:28 | 53.71508 | 10.16683 | 7761 ft | 213 kts | 54° |
| 2026-04-20 14:28 | 53.72450 | 10.18739 | 8156 ft | 231 kts | 55° |
| 2026-04-20 14:29 | 53.73467 | 10.20991 | 8493 ft | 251 kts | 55° |
| 2026-04-20 14:29 | 53.74550 | 10.23399 | 9086 ft | 262 kts | 55° |
| 2026-04-20 14:29 | 53.75658 | 10.25867 | 9840 ft | 266 kts | 55° |
| 2026-04-20 14:29 | 53.76798 | 10.28392 | 10341 ft | 280 kts | 54° |
| 2026-04-20 14:30 | 53.78021 | 10.31115 | 10517 ft | 302 kts | 54° |
| 2026-04-20 14:30 | 53.79335 | 10.34041 | 10773 ft | 321 kts | 54° |
| 2026-04-20 14:30 | 53.80710 | 10.37081 | 11289 ft | 328 kts | 54° |
| 2026-04-20 14:30 | 53.82104 | 10.40159 | 11979 ft | 331 kts | 54° |
| 2026-04-20 14:31 | 53.83506 | 10.43258 | 12747 ft | 332 kts | 54° |
| 2026-04-20 14:31 | 53.84913 | 10.46371 | 13458 ft | 335 kts | 54° |
| 2026-04-20 14:31 | 53.86339 | 10.49536 | 14089 ft | 339 kts | 54° |
| 2026-04-20 14:31 | 53.87774 | 10.52716 | 14786 ft | 339 kts | 53° |
| 2026-04-20 14:32 | 53.89210 | 10.55909 | 15386 ft | 343 kts | 53° |
| 2026-04-20 14:32 | 53.90650 | 10.59135 | 16007 ft | 345 kts | 54° |
| 2026-04-20 14:32 | 53.92100 | 10.62385 | 16627 ft | 347 kts | 53° |
| 2026-04-20 14:32 | 53.93572 | 10.65689 | 17121 ft | 353 kts | 53° |
| 2026-04-20 14:33 | 53.95120 | 10.68931 | 17819 ft | 354 kts | 50° |
| 2026-04-20 14:33 | 53.96794 | 10.72034 | 18340 ft | 359 kts | 47° |
| 2026-04-20 14:33 | 53.98530 | 10.75112 | 18908 ft | 361 kts | 47° |
| 2026-04-20 14:33 | 54.00276 | 10.78194 | 19442 ft | 364 kts | 47° |
| 2026-04-20 14:34 | 54.02039 | 10.81316 | 19934 ft | 367 kts | 47° |
| 2026-04-20 14:34 | 54.03807 | 10.84457 | 20514 ft | 369 kts | 47° |
| 2026-04-20 14:34 | 54.05579 | 10.87653 | 20957 ft | 374 kts | 47° |
| 2026-04-20 14:34 | 54.07334 | 10.90848 | 21572 ft | 375 kts | 47° |
| 2026-04-20 14:35 | 54.09118 | 10.94116 | 22063 ft | 379 kts | 47° |
| 2026-04-20 14:35 | 54.10919 | 10.97424 | 22596 ft | 381 kts | 47° |
| 2026-04-20 14:35 | 54.12721 | 11.00749 | 23149 ft | 384 kts | 48° |
| 2026-04-20 14:35 | 54.14539 | 11.04130 | 23613 ft | 388 kts | 48° |
| 2026-04-20 14:36 | 54.16359 | 11.07526 | 24123 ft | 389 kts | 48° |
| 2026-04-20 14:36 | 54.18200 | 11.10955 | 24478 ft | 394 kts | 48° |
| 2026-04-20 14:36 | 54.20058 | 11.14410 | 24932 ft | 396 kts | 48° |
| 2026-04-20 14:36 | 54.21928 | 11.17894 | 25294 ft | 400 kts | 48° |
| 2026-04-20 14:37 | 54.23808 | 11.21406 | 25824 ft | 400 kts | 49° |
| 2026-04-20 14:37 | 54.25687 | 11.24917 | 26280 ft | 402 kts | 49° |
| 2026-04-20 14:37 | 54.27576 | 11.28465 | 26716 ft | 404 kts | 49° |
| 2026-04-20 14:37 | 54.29472 | 11.32034 | 27111 ft | 407 kts | 49° |
| 2026-04-20 14:38 | 54.31389 | 11.35650 | 27465 ft | 411 kts | 49° |
| 2026-04-20 14:38 | 54.33313 | 11.39277 | 27932 ft | 412 kts | 49° |
| 2026-04-20 14:38 | 54.35255 | 11.42939 | 28229 ft | 417 kts | 49° |
| 2026-04-20 14:38 | 54.37206 | 11.46618 | 28704 ft | 418 kts | 49° |
| 2026-04-20 14:39 | 54.39163 | 11.50319 | 29077 ft | 420 kts | 49° |
| 2026-04-20 14:39 | 54.41120 | 11.54021 | 29662 ft | 417 kts | 49° |
| 2026-04-20 14:39 | 54.43069 | 11.57705 | 30147 ft | 417 kts | 49° |
| 2026-04-20 14:39 | 54.45013 | 11.61382 | 30655 ft | 414 kts | 49° |
| 2026-04-20 14:40 | 54.46996 | 11.64981 | 30985 ft | 416 kts | 41° |
| 2026-04-20 14:40 | 54.49329 | 11.67928 | 31419 ft | 415 kts | 35° |
| 2026-04-20 14:40 | 54.51773 | 11.70580 | 31775 ft | 416 kts | 33° |
| 2026-04-20 14:40 | 54.54247 | 11.73201 | 32047 ft | 418 kts | 33° |
| 2026-04-20 14:41 | 54.56715 | 11.75818 | 32435 ft | 417 kts | 33° |
| 2026-04-20 14:41 | 54.59189 | 11.78470 | 32685 ft | 419 kts | 34° |
| 2026-04-20 14:41 | 54.61640 | 11.81132 | 33134 ft | 416 kts | 33° |
| 2026-04-20 14:41 | 54.64077 | 11.83821 | 33430 ft | 416 kts | 34° |
| 2026-04-20 14:42 | 54.66505 | 11.86523 | 33875 ft | 413 kts | 34° |
| 2026-04-20 14:42 | 54.68918 | 11.89229 | 34074 ft | 416 kts | 34° |
| 2026-04-20 14:42 | 54.71346 | 11.91955 | 34385 ft | 415 kts | 34° |
| 2026-04-20 14:42 | 54.73755 | 11.94669 | 34774 ft | 410 kts | 34° |
| 2026-04-20 14:43 | 54.76138 | 11.97351 | 35033 ft | 409 kts | 34° |
| 2026-04-20 14:43 | 54.78529 | 12.00034 | 35164 ft | 410 kts | 33° |
| 2026-04-20 14:43 | 54.83330 | 12.05428 | 35254 ft | 417 kts | 34° |
| 2026-04-20 14:44 | 54.88192 | 12.10945 | 35282 ft | 417 kts | 34° |
| 2026-04-20 14:44 | 54.92950 | 12.16350 | 35285 ft | 414 kts | 34° |
| 2026-04-20 14:45 | 54.97768 | 12.21813 | 35300 ft | 414 kts | 34° |
| 2026-04-20 14:45 | 55.02597 | 12.27291 | 35299 ft | 415 kts | 33° |
| 2026-04-20 14:46 | 55.07423 | 12.32781 | 35303 ft | 414 kts | 34° |
| 2026-04-20 14:46 | 55.12243 | 12.38284 | 35299 ft | 414 kts | 34° |
| 2026-04-20 14:47 | 55.17062 | 12.43801 | 35300 ft | 413 kts | 33° |
| 2026-04-20 14:48 | 55.24300 | 12.52174 | 35299 ft | 418 kts | 34° |
| 2026-04-20 14:48 | 55.29169 | 12.57807 | 35310 ft | 419 kts | 34° |
| 2026-04-20 14:49 | 55.33205 | 12.62472 | 35310 ft | 417 kts | 34° |
| 2026-04-20 14:49 | 55.38045 | 12.68080 | 35312 ft | 416 kts | 34° |
| 2026-04-20 14:50 | 55.42875 | 12.73692 | 35309 ft | 416 kts | 34° |
| 2026-04-20 14:50 | 55.47709 | 12.79325 | 35311 ft | 417 kts | 34° |
| 2026-04-20 14:51 | 55.52557 | 12.84992 | 35315 ft | 418 kts | 34° |
| 2026-04-20 14:51 | 55.57391 | 12.90697 | 35317 ft | 418 kts | 34° |
| 2026-04-20 14:52 | 55.62228 | 12.96422 | 35322 ft | 417 kts | 34° |
| 2026-04-20 14:52 | 55.67011 | 13.02076 | 35315 ft | 410 kts | 34° |
| 2026-04-20 14:53 | 55.71734 | 13.07654 | 35318 ft | 408 kts | 34° |
| 2026-04-20 14:53 | 55.76467 | 13.13264 | 35312 ft | 411 kts | 34° |
| 2026-04-20 14:54 | 55.81226 | 13.18925 | 35305 ft | 415 kts | 34° |
| 2026-04-20 14:54 | 55.86049 | 13.24677 | 35301 ft | 414 kts | 34° |
| 2026-04-20 14:55 | 55.90781 | 13.30364 | 35297 ft | 412 kts | 34° |
| 2026-04-20 14:55 | 55.95537 | 13.36115 | 35296 ft | 414 kts | 34° |
| 2026-04-20 14:56 | 56.00308 | 13.41880 | 35293 ft | 415 kts | 34° |
| 2026-04-20 14:56 | 56.05093 | 13.47655 | 35294 ft | 415 kts | 34° |
| 2026-04-20 14:57 | 56.09878 | 13.53441 | 35300 ft | 415 kts | 34° |
| 2026-04-20 14:57 | 56.14647 | 13.59228 | 35302 ft | 412 kts | 34° |
| 2026-04-20 14:58 | 56.19384 | 13.64998 | 35311 ft | 411 kts | 35° |
| 2026-04-20 14:58 | 56.24116 | 13.70802 | 35315 ft | 413 kts | 35° |
| 2026-04-20 14:59 | 56.28851 | 13.76652 | 35316 ft | 413 kts | 35° |
| 2026-04-20 14:59 | 56.33566 | 13.82471 | 35317 ft | 414 kts | 35° |
| 2026-04-20 15:00 | 56.38349 | 13.88365 | 35317 ft | 414 kts | 35° |
| 2026-04-20 15:00 | 56.43074 | 13.94204 | 35322 ft | 414 kts | 35° |
| 2026-04-20 15:01 | 56.47827 | 14.00095 | 35327 ft | 414 kts | 36° |
| 2026-04-20 15:01 | 56.52564 | 14.05986 | 35324 ft | 413 kts | 36° |
| 2026-04-20 15:02 | 56.57288 | 14.11895 | 35327 ft | 412 kts | 36° |
| 2026-04-20 15:02 | 56.61999 | 14.17829 | 35320 ft | 412 kts | 36° |
| 2026-04-20 15:03 | 56.66699 | 14.23768 | 35323 ft | 411 kts | 36° |
| 2026-04-20 15:03 | 56.71397 | 14.29699 | 35325 ft | 411 kts | 36° |
| 2026-04-20 15:04 | 56.76091 | 14.35628 | 35323 ft | 411 kts | 36° |
| 2026-04-20 15:04 | 56.80794 | 14.41584 | 35323 ft | 412 kts | 36° |
| 2026-04-20 15:05 | 56.85495 | 14.47544 | 35317 ft | 412 kts | 36° |
| 2026-04-20 15:05 | 56.90195 | 14.53540 | 35317 ft | 412 kts | 37° |
| 2026-04-20 15:06 | 56.94882 | 14.59592 | 35317 ft | 412 kts | 37° |
| 2026-04-20 15:06 | 56.99568 | 14.65644 | 35334 ft | 411 kts | 37° |
| 2026-04-20 15:07 | 57.04211 | 14.71629 | 35334 ft | 410 kts | 37° |
| 2026-04-20 15:07 | 57.08875 | 14.77643 | 35336 ft | 409 kts | 37° |
| 2026-04-20 15:08 | 57.13532 | 14.83672 | 35338 ft | 409 kts | 37° |
| 2026-04-20 15:08 | 57.18133 | 14.89650 | 35345 ft | 410 kts | 37° |
| 2026-04-20 15:09 | 57.22794 | 14.95722 | 35343 ft | 411 kts | 37° |
| 2026-04-20 15:09 | 57.27493 | 15.01751 | 35347 ft | 411 kts | 36° |
| 2026-04-20 15:10 | 57.32198 | 15.07776 | 35343 ft | 410 kts | 37° |
| 2026-04-20 15:10 | 57.36836 | 15.13858 | 35351 ft | 406 kts | 39° |
| 2026-04-20 15:11 | 57.41220 | 15.20417 | 35353 ft | 405 kts | 41° |
| 2026-04-20 15:11 | 57.45607 | 15.26990 | 35355 ft | 406 kts | 40° |
| 2026-04-20 15:12 | 57.50084 | 15.33434 | 35358 ft | 408 kts | 39° |
| 2026-04-20 15:12 | 57.54599 | 15.39834 | 35348 ft | 408 kts | 39° |
| 2026-04-20 15:13 | 57.59108 | 15.46245 | 35352 ft | 407 kts | 40° |
| 2026-04-20 15:13 | 57.63539 | 15.52650 | 35358 ft | 405 kts | 40° |
| 2026-04-20 15:14 | 57.67992 | 15.59098 | 35359 ft | 405 kts | 40° |
| 2026-04-20 15:14 | 57.72454 | 15.65571 | 35358 ft | 406 kts | 40° |
| 2026-04-20 15:15 | 57.76916 | 15.72054 | 35366 ft | 407 kts | 40° |
| 2026-04-20 15:15 | 57.81392 | 15.78578 | 35365 ft | 407 kts | 40° |
| 2026-04-20 15:16 | 57.85861 | 15.85114 | 35370 ft | 407 kts | 40° |
| 2026-04-20 15:16 | 57.90321 | 15.91654 | 35369 ft | 406 kts | 40° |
| 2026-04-20 15:17 | 57.94747 | 15.98223 | 35369 ft | 405 kts | 40° |
| 2026-04-20 15:17 | 57.99164 | 16.04797 | 35370 ft | 406 kts | 40° |
| 2026-04-20 15:18 | 58.03603 | 16.11389 | 35365 ft | 406 kts | 40° |
| 2026-04-20 15:18 | 58.08043 | 16.17991 | 35383 ft | 406 kts | 40° |
| 2026-04-20 15:19 | 58.12441 | 16.24555 | 35381 ft | 405 kts | 40° |
| 2026-04-20 15:19 | 58.16851 | 16.31157 | 35382 ft | 404 kts | 40° |
| 2026-04-20 15:20 | 58.21288 | 16.37819 | 35051 ft | 410 kts | 41° |
| 2026-04-20 15:20 | 58.23523 | 16.41179 | 34813 ft | 409 kts | 41° |
| 2026-04-20 15:20 | 58.25743 | 16.44521 | 34568 ft | 406 kts | 41° |
| 2026-04-20 15:20 | 58.27912 | 16.47919 | 34311 ft | 402 kts | 48° |
| 2026-04-20 15:21 | 58.29711 | 16.51944 | 34038 ft | 399 kts | 55° |
| 2026-04-20 15:21 | 58.31339 | 16.56215 | 33693 ft | 400 kts | 56° |
| 2026-04-20 15:21 | 58.32949 | 16.60550 | 33334 ft | 401 kts | 56° |
| 2026-04-20 15:21 | 58.34562 | 16.64877 | 32983 ft | 401 kts | 56° |
| 2026-04-20 15:22 | 58.36191 | 16.69201 | 32630 ft | 402 kts | 56° |
| 2026-04-20 15:22 | 58.37837 | 16.73515 | 32279 ft | 403 kts | 56° |
| 2026-04-20 15:22 | 58.39499 | 16.77821 | 31941 ft | 404 kts | 55° |
| 2026-04-20 15:22 | 58.41174 | 16.82127 | 31605 ft | 405 kts | 55° |
| 2026-04-20 15:23 | 58.42857 | 16.86438 | 31269 ft | 405 kts | 55° |
| 2026-04-20 15:23 | 58.44546 | 16.90769 | 30769 ft | 410 kts | 55° |
| 2026-04-20 15:23 | 58.46248 | 16.95143 | 30042 ft | 412 kts | 55° |
| 2026-04-20 15:23 | 58.47955 | 16.99539 | 29298 ft | 412 kts | 55° |
| 2026-04-20 15:24 | 58.49658 | 17.03940 | 28636 ft | 413 kts | 55° |
| 2026-04-20 15:24 | 58.51366 | 17.08358 | 27955 ft | 412 kts | 55° |
| 2026-04-20 15:24 | 58.53055 | 17.12735 | 27310 ft | 404 kts | 55° |
| 2026-04-20 15:24 | 58.54699 | 17.17033 | 26649 ft | 397 kts | 55° |
| 2026-04-20 15:25 | 58.56309 | 17.21288 | 25981 ft | 390 kts | 55° |
| 2026-04-20 15:25 | 58.57884 | 17.25467 | 25327 ft | 385 kts | 55° |
| 2026-04-20 15:25 | 58.59441 | 17.29596 | 24679 ft | 380 kts | 55° |
| 2026-04-20 15:25 | 58.60982 | 17.33676 | 24031 ft | 376 kts | 55° |
| 2026-04-20 15:26 | 58.62508 | 17.37713 | 23300 ft | 372 kts | 55° |
| 2026-04-20 15:26 | 58.64017 | 17.41699 | 22629 ft | 366 kts | 55° |
| 2026-04-20 15:26 | 58.65504 | 17.45624 | 22021 ft | 360 kts | 55° |
| 2026-04-20 15:26 | 58.66972 | 17.49502 | 21375 ft | 360 kts | 55° |
| 2026-04-20 15:27 | 58.68450 | 17.53414 | 20719 ft | 364 kts | 55° |
| 2026-04-20 15:27 | 58.69942 | 17.57366 | 20021 ft | 365 kts | 55° |
| 2026-04-20 15:27 | 58.71430 | 17.61315 | 19356 ft | 363 kts | 55° |
| 2026-04-20 15:27 | 58.72907 | 17.65236 | 18712 ft | 361 kts | 55° |
| 2026-04-20 15:28 | 58.74372 | 17.69129 | 17997 ft | 357 kts | 55° |
| 2026-04-20 15:28 | 58.75821 | 17.72984 | 17306 ft | 353 kts | 54° |
| 2026-04-20 15:28 | 58.77251 | 17.76795 | 16649 ft | 349 kts | 54° |
| 2026-04-20 15:28 | 58.78662 | 17.80557 | 16031 ft | 345 kts | 54° |
| 2026-04-20 15:29 | 58.80044 | 17.84243 | 15430 ft | 342 kts | 54° |
| 2026-04-20 15:29 | 58.81495 | 17.87845 | 14931 ft | 338 kts | 45° |
| 2026-04-20 15:29 | 58.83409 | 17.90458 | 14524 ft | 339 kts | 30° |
| 2026-04-20 15:29 | 58.85514 | 17.92517 | 14099 ft | 339 kts | 28° |
| 2026-04-20 15:30 | 58.87639 | 17.94480 | 13630 ft | 338 kts | 27° |
| 2026-04-20 15:30 | 58.89754 | 17.96396 | 13295 ft | 333 kts | 27° |
| 2026-04-20 15:30 | 58.91861 | 17.98289 | 12894 ft | 334 kts | 27° |
| 2026-04-20 15:30 | 58.93961 | 18.00187 | 12477 ft | 332 kts | 27° |
| 2026-04-20 15:31 | 58.96048 | 18.02099 | 12100 ft | 332 kts | 27° |
| 2026-04-20 15:31 | 58.98102 | 18.04011 | 11718 ft | 330 kts | 28° |
| 2026-04-20 15:31 | 59.00173 | 18.05965 | 11325 ft | 327 kts | 28° |
| 2026-04-20 15:31 | 59.02218 | 18.07907 | 10952 ft | 325 kts | 28° |
| 2026-04-20 15:32 | 59.04245 | 18.09824 | 10586 ft | 324 kts | 26° |
| 2026-04-20 15:32 | 59.06420 | 18.10975 | 10336 ft | 324 kts | 7° |
| 2026-04-20 15:32 | 59.08586 | 18.10612 | 10307 ft | 302 kts | 347° |
| 2026-04-20 15:32 | 59.10456 | 18.09133 | 10172 ft | 280 kts | 339° |
| 2026-04-20 15:33 | 59.12171 | 18.07538 | 9803 ft | 270 kts | 339° |
| 2026-04-20 15:33 | 59.13850 | 18.05934 | 9390 ft | 270 kts | 338° |
| 2026-04-20 15:33 | 59.15519 | 18.04302 | 8958 ft | 268 kts | 338° |
| 2026-04-20 15:33 | 59.17175 | 18.02657 | 8541 ft | 265 kts | 337° |
| 2026-04-20 15:34 | 59.18813 | 18.01019 | 8125 ft | 264 kts | 337° |
| 2026-04-20 15:34 | 59.20441 | 17.99397 | 7753 ft | 261 kts | 337° |
| 2026-04-20 15:34 | 59.22032 | 17.97802 | 7555 ft | 254 kts | 337° |
| 2026-04-20 15:34 | 59.23593 | 17.96244 | 7473 ft | 251 kts | 337° |
| 2026-04-20 15:35 | 59.25138 | 17.94707 | 7433 ft | 247 kts | 337° |
| 2026-04-20 15:35 | 59.26651 | 17.93192 | 7347 ft | 244 kts | 337° |
| 2026-04-20 15:35 | 59.28202 | 17.91771 | 6756 ft | 248 kts | 342° |
| 2026-04-20 15:35 | 59.29813 | 17.90631 | 6099 ft | 245 kts | 345° |
| 2026-04-20 15:36 | 59.31416 | 17.89601 | 5476 ft | 241 kts | 346° |
| 2026-04-20 15:36 | 59.33005 | 17.88618 | 4844 ft | 238 kts | 346° |
| 2026-04-20 15:36 | 59.34569 | 17.87687 | 4365 ft | 230 kts | 346° |
| 2026-04-20 15:36 | 59.36080 | 17.86835 | 4164 ft | 221 kts | 347° |
| 2026-04-20 15:37 | 59.37534 | 17.86182 | 4070 ft | 207 kts | 2° |
| 2026-04-20 15:37 | 59.38901 | 17.86652 | 4043 ft | 196 kts | 14° |
| 2026-04-20 15:37 | 59.39781 | 17.86994 | 4016 ft | 192 kts | 10° |
| 2026-04-20 15:37 | 59.41544 | 17.87528 | 4014 ft | 190 kts | 11° |
| 2026-04-20 15:38 | 59.42796 | 17.87961 | 4016 ft | 176 kts | 12° |
| 2026-04-20 15:38 | 59.43981 | 17.88391 | 4006 ft | 171 kts | 12° |
| 2026-04-20 15:38 | 59.45170 | 17.88802 | 3775 ft | 176 kts | 11° |
| 2026-04-20 15:38 | 59.46371 | 17.89227 | 3522 ft | 174 kts | 12° |
| 2026-04-20 15:39 | 59.47559 | 17.89650 | 3267 ft | 173 kts | 11° |
| 2026-04-20 15:39 | 59.48342 | 17.89932 | 3113 ft | 172 kts | 12° |
| 2026-04-20 15:39 | 59.49495 | 17.90336 | 2872 ft | 163 kts | 12° |
| 2026-04-20 15:39 | 59.50577 | 17.90735 | 2599 ft | 154 kts | 12° |
| 2026-04-20 15:40 | 59.51603 | 17.91094 | 2467 ft | 146 kts | 12° |
| 2026-04-20 15:40 | 59.52613 | 17.91460 | 2291 ft | 148 kts | 12° |
| 2026-04-20 15:40 | 59.53627 | 17.91835 | 2090 ft | 148 kts | 11° |
| 2026-04-20 15:40 | 59.54634 | 17.92194 | 1875 ft | 146 kts | 12° |
| 2026-04-20 15:41 | 59.55644 | 17.92553 | 1628 ft | 146 kts | 11° |
| 2026-04-20 15:41 | 59.56648 | 17.92907 | 1427 ft | 145 kts | 12° |
| 2026-04-20 15:41 | 59.57645 | 17.93269 | 1246 ft | 141 kts | 12° |
| 2026-04-20 15:41 | 59.58569 | 17.93604 | 1035 ft | 131 kts | 12° |
| 2026-04-20 15:42 | 59.59441 | 17.93935 | 807 ft | 125 kts | 11° |
| 2026-04-20 15:42 | 59.60305 | 17.94222 | 678 ft | 125 kts | 11° |
| 2026-04-20 15:42 | 59.61164 | 17.94527 | 529 ft | 125 kts | 13° |
| 2026-04-20 15:42 | 59.62008 | 17.94846 | 327 ft | 126 kts | 13° |
| 2026-04-20 15:43 | 59.62870 | 17.95155 | 155 ft | 124 kts | 13° |
| 2026-04-20 15:43 | 59.63642 | 17.95444 | 119 ft | 87 kts | 10° |
| 2026-04-20 15:43 | 59.63996 | 17.95558 | 111 ft | 35 kts | 360° |
| 2026-04-20 15:43 | 59.64205 | 17.95477 | 110 ft | 25 kts | 340° |
| 2026-04-20 15:44 | 59.64368 | 17.95365 | 106 ft | 22 kts | 341° |
| 2026-04-20 15:44 | 59.64449 | 17.95329 | 106 ft | 7 kts | 1° |
| 2026-04-20 15:44 | 59.64462 | 17.95331 | 105 ft | 0 kts | 6° |
| 2026-04-20 15:44 | 59.64463 | 17.95331 | 105 ft | 0 kts | 6° |
| 2026-04-20 15:45 | 59.64464 | 17.95331 | 105 ft | 0 kts | 6° |
| 2026-04-20 15:45 | 59.64474 | 17.95334 | 106 ft | 5 kts | 9° |
| 2026-04-20 15:45 | 59.64543 | 17.95359 | 105 ft | 14 kts | 11° |
| 2026-04-20 15:46 | 59.64641 | 17.95396 | 105 ft | 15 kts | 11° |
| 2026-04-20 15:46 | 59.64741 | 17.95433 | 107 ft | 15 kts | 11° |
| 2026-04-20 15:46 | 59.64842 | 17.95469 | 108 ft | 15 kts | 10° |
| 2026-04-20 15:46 | 59.64939 | 17.95505 | 111 ft | 13 kts | 10° |
| 2026-04-20 15:47 | 59.65022 | 17.95514 | 113 ft | 11 kts | 357° |
| 2026-04-20 15:47 | 59.65110 | 17.95481 | 118 ft | 16 kts | 345° |
| 2026-04-20 15:47 | 59.65226 | 17.95421 | 120 ft | 19 kts | 346° |
| 2026-04-20 15:47 | 59.65361 | 17.95349 | 127 ft | 22 kts | 345° |
| 2026-04-20 15:48 | 59.65519 | 17.95265 | 126 ft | 24 kts | 345° |
| 2026-04-20 15:48 | 59.65669 | 17.95186 | 128 ft | 17 kts | 344° |
| 2026-04-20 15:48 | 59.65747 | 17.95028 | 125 ft | 19 kts | 270° |
| 2026-04-20 15:48 | 59.65717 | 17.94759 | 121 ft | 21 kts | 256° |
| 2026-04-20 15:49 | 59.65681 | 17.94474 | 125 ft | 22 kts | 256° |
| 2026-04-20 15:49 | 59.65643 | 17.94174 | 121 ft | 24 kts | 256° |
| 2026-04-20 15:49 | 59.65601 | 17.93845 | 114 ft | 19 kts | 256° |
| 2026-04-20 15:49 | 59.65575 | 17.93642 | 113 ft | 11 kts | 256° |
| 2026-04-20 15:50 | 59.65564 | 17.93556 | 113 ft | 1 kts | 255° |
| 2026-04-20 15:50 | 59.65561 | 17.93527 | 113 ft | 4 kts | 256° |
| 2026-04-20 15:50 | 59.65554 | 17.93471 | 112 ft | 0 kts | 256° |
| 2026-04-20 15:50 | 59.65553 | 17.93465 | 112 ft | 2 kts | 256° |
| 2026-04-20 15:51 | 59.65548 | 17.93424 | 112 ft | 4 kts | 256° |
| 2026-04-20 15:51 | 59.65534 | 17.93363 | 112 ft | 5 kts | 224° |
| 2026-04-20 15:51 | 59.65501 | 17.93345 | 113 ft | 6 kts | 188° |
| 2026-04-20 15:51 | 59.65452 | 17.93346 | 112 ft | 8 kts | 171° |
| 2026-04-20 15:52 | 59.65396 | 17.93375 | 112 ft | 6 kts | 156° |
| 2026-04-20 15:52 | 59.65387 | 17.93443 | 112 ft | 6 kts | 79° |
| 2026-04-20 15:52 | 59.65392 | 17.93485 | 111 ft | 2 kts | 75° |
| 2026-04-20 15:53 | 59.65394 | 17.93496 | 112 ft | 0 kts | 75° |